Hauptseite
METAR-TAF:

METAR-TAF

Flughäfen :

Celle, Deutschland

Heeresflugplatz Celle

Breite: 52-36N, Länge: 010-01E, Höhe: 39 m

Beobachtung

Neuester Wetterbericht von vor 33 Minuten, um 11:20 UTC
Wind 11 kt aus Ost/Südost
Temperatur 25°C
Luftfeuchtigkeit 36%
Luftdruck 1021 hPa
Sichtweite: 4700 m

METAR: ETHC 271120Z AUTO 12011KT 4700 // ////// 25/09 Q1021 ///

Zeit: 13:53 (11:53 UTC)


TAF: fehlend

Wetterbeobachtungen und Prognosen von mehr als 4000 Flughäfen (METAR und TAF Bericht).

Die verfügbaren Stationen werden durch gelbe und rote Markierungen auf der Karte dargestellt.

Führen Sie die Maus auf sie, um den Namen der Station zu sehen.

Darauf klicken, um die Beobachtung von Wetterbeobachtungen und Prognosen zu sehen.

Um die Karte zu ändern : klicken Sie auf den grünen Tasten mit einem schwarzen Kreuz Zum Vergrößern, auf den grünen Button mit einem Gedankenstrich zu verkleinern, oder auf die grünen Pfeile für benachbarte Karten.


METAR-TAF: